Time;durP1;ratioP1;P1;durP2;ratioP2;P2;SDS_P1;SDS_P2;PMS_P1;PMS_P2;Temp;Humidity;BMP_temperature;BMP_pressure;BME280_temperature;BME280_humidity;BME280_pressure;Samples;Min_cycle;Max_cycle;Signal;HPM_P1;HPM_P2
2022/07/23 00:00:49;;;;;;;18.83;16.30;;;;;;;17.96;84.85;101093.31;4949216;28;20370;-66
2022/07/23 00:03:14;;;;;;;18.23;16.33;;;;;;;17.96;85.41;101081.78;4970896;28;20514;-67
2022/07/23 00:05:40;;;;;;;17.98;16.17;;;;;;;17.90;86.49;101083.28;4965052;28;20337;-66
2022/07/23 00:08:06;;;;;;;20.33;16.55;;;;;;;17.75;86.56;101093.91;4957622;28;20564;-67
2022/07/23 00:10:31;;;;;;;26.52;19.17;;;;;;;17.80;89.29;101082.69;4945765;28;20644;-65
2022/07/23 00:12:56;;;;;;;21.30;18.52;;;;;;;17.64;89.23;101088.94;4982102;28;20024;-67
2022/07/23 00:15:22;;;;;;;22.27;17.45;;;;;;;17.55;89.22;101090.00;4948874;28;20079;-67
2022/07/23 00:17:47;;;;;;;21.85;18.20;;;;;;;17.46;89.22;101084.69;4966426;28;20009;-67
2022/07/23 00:20:13;;;;;;;19.77;17.35;;;;;;;17.35;89.87;101090.44;4950649;28;20032;-66
2022/07/23 00:22:48;;;;;;;21.40;17.77;;;;;;;17.56;91.50;101092.50;4981399;28;20001;-67
2022/07/23 00:25:14;;;;;;;19.60;17.50;;;;;;;17.55;90.43;101095.38;4967971;28;20018;-67
2022/07/23 00:27:40;;;;;;;20.60;17.70;;;;;;;17.58;90.67;101098.50;4969255;28;20133;-67
2022/07/23 00:30:06;;;;;;;19.00;16.85;;;;;;;17.52;90.53;101102.72;4973508;28;20019;-67
2022/07/23 00:32:31;;;;;;;20.90;17.92;;;;;;;17.36;90.93;101093.91;4950897;28;20128;-67
2022/07/23 00:34:56;;;;;;;21.20;18.40;;;;;;;17.24;90.86;101096.97;4949468;28;20340;-67
2022/07/23 00:37:22;;;;;;;20.38;18.25;;;;;;;17.29;90.79;101094.63;4962959;28;20010;-68
2022/07/23 00:39:47;;;;;;;20.95;18.08;;;;;;;17.17;92.11;101086.16;4980120;28;20021;-67
2022/07/23 00:42:13;;;;;;;20.60;18.17;;;;;;;17.21;93.99;101083.13;4970924;28;20898;-67
2022/07/23 00:44:38;;;;;;;20.25;18.08;;;;;;;17.28;94.54;101073.41;4985752;28;20103;-67
2022/07/23 00:47:05;;;;;;;19.67;17.55;;;;;;;17.26;93.80;101097.66;4988407;28;20057;-67
2022/07/23 00:49:30;;;;;;;20.90;17.08;;;;;;;17.27;93.14;101088.59;4944622;28;20029;-67
2022/07/23 00:51:56;;;;;;;19.55;17.13;;;;;;;17.31;92.72;101094.44;4954394;28;21062;-67
2022/07/23 00:54:23;;;;;;;19.63;17.35;;;;;;;17.33;92.82;101092.44;4952937;28;20034;-66
2022/07/23 00:56:49;;;;;;;20.55;18.13;;;;;;;17.46;93.40;101092.72;4954555;28;20012;-67
2022/07/23 00:59:14;;;;;;;21.17;17.23;;;;;;;17.25;93.51;101090.63;4970512;28;20025;-66
2022/07/23 01:01:40;;;;;;;20.58;16.27;;;;;;;17.26;92.50;101073.56;4941002;28;20840;-66
2022/07/23 01:04:05;;;;;;;17.38;15.68;;;;;;;17.24;92.58;101066.72;4951711;28;20081;-67
2022/07/23 01:06:37;;;;;;;17.70;15.85;;;;;;;17.33;92.75;101058.50;4947870;28;20017;-67
2022/07/23 01:09:04;;;;;;;16.10;14.40;;;;;;;17.23;92.27;101065.91;4965517;28;20014;-67
2022/07/23 01:11:29;;;;;;;18.00;15.02;;;;;;;17.11;90.93;101062.75;4939412;28;20121;-67
2022/07/23 01:13:55;;;;;;;18.00;14.93;;;;;;;16.91;90.99;101061.50;4991435;28;20528;-67
2022/07/23 01:16:20;;;;;;;18.10;14.00;;;;;;;16.88;92.59;101067.13;4964729;28;20018;-67
2022/07/23 01:18:45;;;;;;;17.42;15.05;;;;;;;16.81;92.99;101065.13;4974529;28;20011;-68
2022/07/23 01:21:12;;;;;;;19.73;15.68;;;;;;;16.91;93.36;101066.84;4947072;28;20071;-66
2022/07/23 01:23:38;;;;;;;16.48;14.73;;;;;;;16.96;93.83;101064.47;4953350;28;20581;-68
2022/07/23 01:26:03;;;;;;;16.92;14.98;;;;;;;17.10;94.20;101069.09;4951530;28;20954;-67
2022/07/23 01:28:29;;;;;;;16.95;15.15;;;;;;;16.99;93.37;101074.81;4962207;28;20085;-67
2022/07/23 01:30:54;;;;;;;18.98;15.30;;;;;;;17.08;93.65;101068.44;4950896;28;21098;-66
2022/07/23 01:33:20;;;;;;;18.75;15.15;;;;;;;17.04;93.13;101063.63;4953771;28;20017;-67
2022/07/23 01:35:45;;;;;;;17.73;15.88;;;;;;;17.07;93.09;101071.28;4972853;28;20075;-67
2022/07/23 01:38:10;;;;;;;18.63;16.38;;;;;;;17.04;93.44;101067.13;4966339;28;20837;-67
2022/07/23 01:40:36;;;;;;;18.55;16.52;;;;;;;17.13;94.60;101070.59;4933265;28;20021;-67
2022/07/23 01:43:01;;;;;;;16.48;14.77;;;;;;;17.15;94.04;101071.28;4948053;28;20029;-68
2022/07/23 01:45:27;;;;;;;16.95;15.07;;;;;;;17.10;93.90;101065.59;4959483;28;20048;-66
2022/07/23 01:47:52;;;;;;;17.42;15.63;;;;;;;17.08;94.06;101057.75;4963435;28;20003;-66
2022/07/23 01:50:17;;;;;;;20.38;16.23;;;;;;;17.16;94.95;101052.38;4968556;28;20076;-67
2022/07/23 01:52:43;;;;;;;17.90;15.27;;;;;;;17.22;95.60;101058.03;4999781;28;20029;-67
2022/07/23 01:55:08;;;;;;;17.08;15.25;;;;;;;17.28;94.81;101055.50;4985788;28;20905;-66
2022/07/23 01:57:34;;;;;;;18.95;15.25;;;;;;;17.17;93.90;101050.53;4966886;28;20010;-66
2022/07/23 01:59:59;;;;;;;16.10;14.27;;;;;;;17.01;93.39;101056.78;4971523;28;21027;-66
2022/07/23 02:02:25;;;;;;;18.98;15.80;;;;;;;16.94;94.17;101061.13;4983122;28;20026;-66
2022/07/23 02:04:50;;;;;;;18.90;15.63;;;;;;;16.92;95.73;101050.63;4970282;28;20033;-66
2022/07/23 02:07:15;;;;;;;17.50;14.50;;;;;;;16.83;96.31;101052.44;4966506;28;20097;-67
2022/07/23 02:09:41;;;;;;;17.70;15.45;;;;;;;16.76;96.77;101048.75;4946858;28;20017;-67
2022/07/23 02:12:06;;;;;;;21.15;15.05;;;;;;;16.79;96.71;101050.28;4983975;28;21002;-66
2022/07/23 02:14:32;;;;;;;17.05;14.93;;;;;;;16.74;96.99;101049.97;4968765;28;20124;-67
2022/07/23 02:16:57;;;;;;;16.48;14.57;;;;;;;16.70;96.40;101053.97;4980699;28;20009;-67
2022/07/23 02:19:22;;;;;;;18.08;15.55;;;;;;;16.65;95.17;101046.44;4956263;28;20174;-67
2022/07/23 02:21:48;;;;;;;17.63;15.05;;;;;;;16.69;96.16;101052.31;4963186;28;20296;-66
2022/07/23 02:24:13;;;;;;;16.13;14.55;;;;;;;16.74;96.22;101049.97;4966047;28;20038;-67
2022/07/23 02:26:39;;;;;;;16.63;14.93;;;;;;;16.81;96.35;101054.44;4962047;28;20026;-67
2022/07/23 02:29:04;;;;;;;17.38;14.73;;;;;;;16.85;96.64;101052.28;4965770;28;21230;-66
2022/07/23 02:31:30;;;;;;;16.73;14.13;;;;;;;16.71;96.72;101051.13;4963636;28;20026;-66
2022/07/23 02:33:55;;;;;;;15.93;14.10;;;;;;;16.63;96.08;101043.94;4967589;28;20015;-67
2022/07/23 02:36:21;;;;;;;17.10;14.63;;;;;;;16.68;96.09;101046.09;4952050;28;20023;-66
2022/07/23 02:38:46;;;;;;;17.60;13.57;;;;;;;16.68;96.45;101051.44;4977908;28;20273;-67
2022/07/23 02:41:12;;;;;;;16.48;14.77;;;;;;;16.57;95.73;101046.44;4947219;28;20019;-67
2022/07/23 02:43:37;;;;;;;16.08;14.38;;;;;;;16.55;95.35;101046.63;4969103;28;20091;-67
2022/07/23 02:46:03;;;;;;;17.10;15.32;;;;;;;16.41;95.62;101052.66;4967193;28;20117;-65
2022/07/23 02:48:28;;;;;;;17.95;15.73;;;;;;;16.38;96.05;101059.16;4983855;28;20010;-67
2022/07/23 02:50:56;;;;;;;20.60;16.30;;;;;;;16.36;96.97;101057.66;4968903;28;20028;-66
2022/07/23 02:53:21;;;;;;;16.73;14.32;;;;;;;16.34;97.13;101052.47;4967616;28;20013;-67
2022/07/23 02:55:47;;;;;;;16.85;14.82;;;;;;;16.53;96.82;101053.16;4985882;28;21185;-67
2022/07/23 02:58:12;;;;;;;18.40;14.65;;;;;;;16.41;96.06;101045.50;4965869;28;20022;-67
2022/07/23 03:00:38;;;;;;;16.85;14.90;;;;;;;16.30;95.35;101060.00;4986203;28;20494;-67
2022/07/23 03:03:03;;;;;;;16.52;14.60;;;;;;;16.24;95.80;101059.84;4986031;28;20033;-66
2022/07/23 03:05:28;;;;;;;16.25;14.63;;;;;;;16.21;96.35;101058.31;4988494;28;20543;-67
2022/07/23 03:07:54;;;;;;;17.17;14.30;;;;;;;16.12;96.63;101052.16;4973538;28;20017;-67
2022/07/23 03:10:19;;;;;;;15.35;13.82;;;;;;;16.29;95.80;101052.16;4986855;28;20386;-67
2022/07/23 03:12:44;;;;;;;17.17;14.70;;;;;;;16.35;94.69;101056.84;4965540;28;20022;-67
2022/07/23 03:15:10;;;;;;;15.45;13.93;;;;;;;16.31;94.44;101055.50;4968145;28;20495;-67
2022/07/23 03:17:35;;;;;;;16.98;14.73;;;;;;;16.10;94.33;101058.66;4939840;28;20444;-65
2022/07/23 03:20:01;;;;;;;17.33;14.20;;;;;;;16.01;94.90;101054.31;4950918;28;20370;-67
2022/07/23 03:22:26;;;;;;;15.43;13.80;;;;;;;15.94;95.19;101059.47;4931706;28;20033;-64
2022/07/23 03:24:54;;;;;;;15.40;13.80;;;;;;;15.88;95.19;101055.63;4950178;28;20545;-67
2022/07/23 03:27:24;;;;;;;16.63;14.57;;;;;;;15.84;95.31;101048.13;4954022;28;20135;-67
2022/07/23 03:29:50;;;;;;;15.85;13.50;;;;;;;15.84;95.06;101048.94;4931847;28;20999;-66
2022/07/23 03:32:15;;;;;;;14.82;13.32;;;;;;;15.87;94.71;101053.13;4934442;28;20106;-66
2022/07/23 03:34:41;;;;;;;16.08;14.35;;;;;;;15.95;94.14;101055.81;4945653;28;20027;-66
2022/07/23 03:37:06;;;;;;;16.25;14.00;;;;;;;15.99;93.69;101057.16;4967431;28;20197;-66
2022/07/23 03:39:31;;;;;;;19.48;14.90;;;;;;;15.95;93.56;101063.81;4960526;28;20921;-67
2022/07/23 03:41:57;;;;;;;16.95;14.85;;;;;;;15.86;93.63;101054.13;4953929;28;20853;-67
2022/07/23 03:44:22;;;;;;;19.17;14.32;;;;;;;15.66;94.00;101059.69;4965665;28;20163;-67
2022/07/23 03:46:48;;;;;;;15.82;14.20;;;;;;;15.57;94.43;101058.03;4979267;28;20042;-67
2022/07/23 03:49:13;;;;;;;15.95;14.35;;;;;;;15.52;94.88;101063.00;4938787;28;20052;-67
2022/07/23 03:51:39;;;;;;;17.48;14.80;;;;;;;15.43;94.99;101064.81;4933597;28;20816;-66
2022/07/23 03:54:04;;;;;;;15.82;14.25;;;;;;;15.44;95.27;101059.31;4929835;28;20164;-68
2022/07/23 03:56:30;;;;;;;19.80;14.98;;;;;;;15.44;95.54;101059.31;4915687;28;20843;-66
2022/07/23 03:58:55;;;;;;;15.73;13.57;;;;;;;15.44;95.26;101055.78;4952369;28;20078;-68
2022/07/23 04:01:21;;;;;;;16.05;14.27;;;;;;;15.43;95.25;101052.31;4969615;28;21232;-67
2022/07/23 04:03:46;;;;;;;15.23;13.73;;;;;;;15.45;95.28;101061.00;4983338;28;20033;-67
2022/07/23 04:06:12;;;;;;;16.13;14.07;;;;;;;15.45;95.05;101050.31;4967710;28;20057;-66
2022/07/23 04:08:37;;;;;;;15.02;13.57;;;;;;;15.42;95.30;101055.97;4949196;28;20573;-67
2022/07/23 04:11:02;;;;;;;14.68;13.10;;;;;;;15.45;94.60;101055.66;4968042;28;20018;-65
2022/07/23 04:13:28;;;;;;;14.57;12.82;;;;;;;15.43;94.75;101057.63;4984979;28;20008;-66
2022/07/23 04:15:53;;;;;;;15.38;13.07;;;;;;;15.34;95.07;101057.75;4946970;28;20768;-66
2022/07/23 04:18:21;;;;;;;18.85;12.95;;;;;;;15.45;95.21;101061.00;4987708;28;20525;-66
2022/07/23 04:20:46;;;;;;;16.85;13.07;;;;;;;15.55;94.69;101066.19;4943957;28;20508;-67
2022/07/23 04:23:12;;;;;;;15.10;13.70;;;;;;;15.60;94.38;101071.03;4948764;28;20478;-67
2022/07/23 04:25:37;;;;;;;14.55;13.15;;;;;;;15.71;93.72;101068.06;4953712;28;20373;-67
2022/07/23 04:28:03;;;;;;;15.10;13.70;;;;;;;15.77;93.05;101067.41;4948386;28;20018;-67
2022/07/23 04:30:28;;;;;;;15.23;13.05;;;;;;;15.62;93.60;101059.22;4985242;28;20305;-67
2022/07/23 04:32:54;;;;;;;19.00;14.70;;;;;;;15.68;93.55;101070.22;4983038;28;20057;-67
2022/07/23 04:35:19;;;;;;;16.73;14.80;;;;;;;15.69;94.01;101078.03;4965908;28;20034;-67
2022/07/23 04:37:44;;;;;;;17.73;15.27;;;;;;;15.75;94.49;101080.09;4940745;28;20035;-67
2022/07/23 04:40:11;;;;;;;16.58;14.75;;;;;;;15.84;94.54;101074.81;4968460;28;20021;-67
2022/07/23 04:42:37;;;;;;;19.92;14.73;;;;;;;15.73;94.53;101089.25;4967017;28;20460;-66
2022/07/23 04:45:03;;;;;;;16.17;14.50;;;;;;;15.71;94.72;101084.06;4954759;28;20084;-67
2022/07/23 04:47:29;;;;;;;17.80;14.25;;;;;;;15.70;94.78;101090.41;4955628;28;20007;-66
2022/07/23 04:49:54;;;;;;;16.65;13.38;;;;;;;15.73;94.53;101110.59;4947419;28;20103;-67
2022/07/23 04:52:20;;;;;;;16.33;14.23;;;;;;;15.72;94.71;101101.75;4965983;28;20492;-67
2022/07/23 04:54:45;;;;;;;15.52;13.95;;;;;;;15.78;94.50;101109.09;4964372;28;20100;-67
2022/07/23 04:57:10;;;;;;;20.98;14.30;;;;;;;15.78;94.62;101113.63;4963599;28;20971;-66
2022/07/23 04:59:36;;;;;;;18.65;14.27;;;;;;;15.86;94.44;101116.31;4952651;28;20873;-66
2022/07/23 05:02:01;;;;;;;14.25;12.73;;;;;;;15.87;94.21;101122.50;4957322;28;20007;-66
2022/07/23 05:04:27;;;;;;;15.40;13.38;;;;;;;15.87;94.44;101120.66;4925664;28;20054;-66
2022/07/23 05:06:52;;;;;;;14.30;12.90;;;;;;;15.97;94.36;101115.19;4953822;28;20430;-67
2022/07/23 05:09:17;;;;;;;14.50;13.00;;;;;;;16.08;93.78;101122.06;4967066;28;20372;-66
2022/07/23 05:11:43;;;;;;;14.65;13.15;;;;;;;16.23;93.54;101122.25;4948836;28;20389;-67
2022/07/23 05:14:08;;;;;;;15.32;12.43;;;;;;;16.31;92.86;101130.28;4961628;28;20026;-66
2022/07/23 05:16:34;;;;;;;15.43;12.93;;;;;;;16.41;92.38;101133.63;4941940;28;20029;-66
2022/07/23 05:18:59;;;;;;;14.73;12.95;;;;;;;16.40;92.04;101129.28;4942646;28;20098;-66
2022/07/23 05:21:25;;;;;;;14.55;12.88;;;;;;;16.45;91.95;101139.47;4967563;28;20469;-66
2022/07/23 05:23:50;;;;;;;14.43;12.70;;;;;;;16.48;92.11;101131.13;4947279;28;20589;-66
2022/07/23 05:26:15;;;;;;;16.20;13.45;;;;;;;16.54;92.06;101141.16;4971644;28;20042;-66
2022/07/23 05:28:41;;;;;;;15.07;12.73;;;;;;;16.63;92.04;101145.47;4951734;28;20328;-66
2022/07/23 05:31:06;;;;;;;17.55;12.93;;;;;;;16.60;92.05;101142.31;4971883;28;20488;-67
2022/07/23 05:33:32;;;;;;;14.00;12.60;;;;;;;16.68;91.99;101144.16;4967297;28;20661;-66
2022/07/23 05:36:03;;;;;;;13.80;12.40;;;;;;;16.73;91.67;101142.66;4990502;28;20464;-67
2022/07/23 05:38:29;;;;;;;15.10;13.27;;;;;;;16.81;91.46;101148.00;4946845;28;20126;-66
2022/07/23 05:40:54;;;;;;;14.07;12.43;;;;;;;16.88;91.07;101141.97;4965750;28;20353;-67
2022/07/23 05:43:20;;;;;;;15.15;13.23;;;;;;;16.90;90.79;101146.16;4974586;28;20030;-66
2022/07/23 05:45:45;;;;;;;14.48;12.93;;;;;;;17.02;90.70;101144.00;4964158;28;20088;-66
2022/07/23 05:48:10;;;;;;;16.27;13.98;;;;;;;17.09;90.63;101138.78;4947923;28;20026;-66
2022/07/23 05:50:36;;;;;;;14.73;13.23;;;;;;;17.13;90.50;101140.97;4986804;28;20098;-66
2022/07/23 05:53:01;;;;;;;14.82;13.23;;;;;;;17.16;90.40;101147.81;4963145;28;20086;-67
2022/07/23 05:55:28;;;;;;;16.83;13.05;;;;;;;17.12;90.21;101141.97;4969861;28;20661;-67
2022/07/23 05:57:55;;;;;;;16.33;13.45;;;;;;;17.22;90.48;101139.13;4959149;28;20133;-67
2022/07/23 06:00:21;;;;;;;16.67;13.95;;;;;;;17.28;90.41;101154.47;4953613;28;20052;-65
2022/07/23 06:02:46;;;;;;;15.27;13.45;;;;;;;17.34;90.32;101150.28;4985020;28;20590;-67
2022/07/23 06:05:12;;;;;;;15.40;13.13;;;;;;;17.32;90.26;101150.44;4966607;28;20021;-66
2022/07/23 06:07:37;;;;;;;15.00;13.55;;;;;;;17.41;90.06;101153.94;4974151;28;20988;-67
2022/07/23 06:10:03;;;;;;;14.93;13.18;;;;;;;17.42;90.44;101150.25;4955583;28;20028;-65
2022/07/23 06:12:29;;;;;;;17.35;14.00;;;;;;;17.41;90.01;101147.75;4935397;28;21010;-66
2022/07/23 06:14:54;;;;;;;18.08;13.90;;;;;;;17.47;90.06;101150.59;4955694;28;20025;-67
2022/07/23 06:17:20;;;;;;;16.50;13.80;;;;;;;17.51;89.53;101143.88;4973226;28;20270;-67
2022/07/23 06:19:45;;;;;;;18.92;13.75;;;;;;;17.62;89.45;101152.53;4955266;28;20021;-66
2022/07/23 06:22:10;;;;;;;18.65;13.38;;;;;;;17.61;89.31;101148.19;4945909;28;20014;-67
2022/07/23 06:24:36;;;;;;;15.55;13.80;;;;;;;17.60;89.00;101157.22;4967623;28;20217;-66
2022/07/23 06:27:01;;;;;;;16.85;14.15;;;;;;;17.62;88.16;101160.56;4945668;28;20049;-66
2022/07/23 06:29:26;;;;;;;17.45;14.20;;;;;;;17.67;88.11;101163.56;4950713;28;20007;-67
2022/07/23 06:31:52;;;;;;;15.82;13.95;;;;;;;17.69;88.72;101156.19;4944836;28;20238;-66
2022/07/23 06:34:17;;;;;;;18.48;13.95;;;;;;;17.75;88.53;101154.66;4967350;28;20125;-67
2022/07/23 06:36:43;;;;;;;15.77;13.68;;;;;;;17.78;88.37;101154.28;4971132;28;20255;-66
2022/07/23 06:39:08;;;;;;;14.88;12.93;;;;;;;17.79;87.16;101161.31;4977174;28;20075;-66
2022/07/23 06:41:34;;;;;;;16.35;12.98;;;;;;;17.83;86.83;101159.97;4957875;28;20022;-66
2022/07/23 06:43:59;;;;;;;13.07;11.68;;;;;;;17.88;86.31;101159.44;4966999;28;20029;-66
2022/07/23 06:46:25;;;;;;;14.27;12.15;;;;;;;17.89;86.21;101161.94;4982970;28;20009;-66
2022/07/23 06:48:50;;;;;;;15.07;12.45;;;;;;;17.86;85.48;101160.44;4970035;28;20165;-66
2022/07/23 06:51:15;;;;;;;13.95;11.52;;;;;;;17.98;85.49;101160.09;4968136;28;20017;-67
2022/07/23 06:53:41;;;;;;;15.30;12.32;;;;;;;18.10;85.80;101152.50;4968935;28;20797;-68
2022/07/23 06:56:06;;;;;;;13.70;11.25;;;;;;;18.19;85.38;101167.53;4968121;28;20006;-67
2022/07/23 06:58:32;;;;;;;12.65;11.35;;;;;;;18.17;84.57;101169.53;4969099;28;20044;-67
2022/07/23 07:00:57;;;;;;;11.40;10.23;;;;;;;18.19;82.78;101163.00;4965140;28;20615;-67
2022/07/23 07:03:22;;;;;;;17.45;10.75;;;;;;;18.19;81.37;101170.19;4969854;28;20033;-66
2022/07/23 07:05:49;;;;;;;11.38;9.98;;;;;;;18.18;79.95;101177.38;4951988;28;20423;-66
2022/07/23 07:08:15;;;;;;;11.40;10.18;;;;;;;18.16;79.81;101171.38;4997866;28;20014;-67
2022/07/23 07:10:40;;;;;;;10.65;9.00;;;;;;;18.27;79.48;101177.34;4982388;28;20049;-66
2022/07/23 07:13:06;;;;;;;9.40;8.18;;;;;;;18.27;78.65;101180.03;4968389;28;20563;-68
2022/07/23 07:15:31;;;;;;;11.93;8.73;;;;;;;18.32;78.30;101174.97;4989008;28;20017;-66
2022/07/23 07:17:56;;;;;;;11.40;8.77;;;;;;;18.42;80.51;101174.75;4951939;28;20513;-67
2022/07/23 07:20:23;;;;;;;10.05;9.05;;;;;;;18.50;80.17;101180.03;4983515;28;20014;-66
2022/07/23 07:22:48;;;;;;;9.05;8.15;;;;;;;18.56;80.44;101178.47;4969924;28;20366;-67
2022/07/23 07:25:14;;;;;;;9.85;8.38;;;;;;;18.68;78.63;101180.59;4952927;28;20930;-67
2022/07/23 07:27:39;;;;;;;9.70;8.10;;;;;;;18.78;79.48;101182.16;4986490;28;20114;-67
2022/07/23 07:30:05;;;;;;;8.57;7.60;;;;;;;18.94;80.18;101191.94;4952125;28;20411;-67
2022/07/23 07:32:32;;;;;;;10.18;8.93;;;;;;;18.97;77.98;101191.59;4952241;28;20025;-67
2022/07/23 07:34:58;;;;;;;10.00;9.00;;;;;;;19.03;76.92;101191.69;4952447;28;20458;-67
2022/07/23 07:37:23;;;;;;;9.50;8.45;;;;;;;19.26;76.21;101188.13;4932909;28;20075;-66
2022/07/23 07:39:48;;;;;;;11.70;9.80;;;;;;;19.48;75.29;101194.44;4983276;28;20006;-67
2022/07/23 07:42:14;;;;;;;12.43;8.75;;;;;;;19.51;76.76;101198.59;4967488;28;20626;-66
2022/07/23 07:44:39;;;;;;;11.00;7.38;;;;;;;19.68;76.16;101204.63;4978114;28;20477;-67
2022/07/23 07:47:05;;;;;;;9.30;8.32;;;;;;;19.96;75.85;101206.69;4939891;28;20014;-66
2022/07/23 07:49:30;;;;;;;10.48;9.38;;;;;;;20.16;73.21;101212.28;4933818;28;20030;-68
2022/07/23 07:51:55;;;;;;;10.55;8.38;;;;;;;20.34;72.49;101207.31;4967468;28;20022;-69
2022/07/23 07:54:21;;;;;;;10.00;9.00;;;;;;;20.48;71.71;101204.78;4949760;28;20030;-70
2022/07/23 07:56:47;;;;;;;10.93;9.00;;;;;;;20.43;70.32;101210.72;4968150;28;20013;-68
2022/07/23 07:59:14;;;;;;;9.50;8.13;;;;;;;20.47;69.57;101214.69;4986445;28;20067;-67
2022/07/23 08:01:40;;;;;;;9.93;7.80;;;;;;;20.60;70.05;101214.00;4983738;28;20923;-68
2022/07/23 08:04:05;;;;;;;9.15;8.15;;;;;;;20.86;69.87;101218.81;4960593;28;20069;-70
2022/07/23 08:06:31;;;;;;;8.18;7.38;;;;;;;21.07;68.67;101223.34;4958191;28;20490;-69
2022/07/23 08:08:56;;;;;;;7.45;6.70;;;;;;;21.36;68.52;101218.78;4968969;28;20249;-68
2022/07/23 08:11:21;;;;;;;9.07;7.38;;;;;;;21.57;68.27;101219.78;4963161;28;20010;-68
2022/07/23 08:13:47;;;;;;;11.40;7.72;;;;;;;21.86;68.14;101221.41;4982097;28;20115;-66
2022/07/23 08:16:12;;;;;;;7.78;7.07;;;;;;;22.09;67.28;101222.94;4933287;28;20018;-68
2022/07/23 08:18:38;;;;;;;10.15;7.47;;;;;;;22.04;66.40;101222.72;4972439;28;20380;-68
2022/07/23 08:21:06;;;;;;;7.28;6.57;;;;;;;22.05;65.47;101222.50;4990264;28;20009;-69
2022/07/23 08:23:31;;;;;;;8.68;6.25;;;;;;;22.10;63.51;101224.63;4977549;28;20521;-69
2022/07/23 08:25:57;;;;;;;7.57;6.78;;;;;;;21.88;64.26;101224.72;4951852;28;20228;-67
2022/07/23 08:28:22;;;;;;;6.88;6.10;;;;;;;21.89;64.29;101231.78;4980519;28;20206;-69
2022/07/23 08:30:48;;;;;;;7.30;6.43;;;;;;;22.05;63.42;101230.59;4991980;28;20006;-69
2022/07/23 08:33:14;;;;;;;7.45;6.55;;;;;;;22.30;63.42;101236.28;4992421;28;20009;-68
2022/07/23 08:35:46;;;;;;;6.72;6.13;;;;;;;22.38;61.94;101238.00;5008894;28;20402;-68
2022/07/23 08:38:12;;;;;;;6.82;6.03;;;;;;;22.18;62.82;101231.69;4936338;28;20018;-68
2022/07/23 08:40:39;;;;;;;8.30;5.15;;;;;;;22.41;63.00;101242.16;4972980;28;20444;-68
2022/07/23 08:43:05;;;;;;;6.50;5.82;;;;;;;22.30;61.72;101230.88;4975307;28;20178;-69
2022/07/23 08:45:31;;;;;;;6.95;6.32;;;;;;;22.14;62.61;101236.66;4965058;28;19998;-70
2022/07/23 08:48:00;;;;;;;6.65;6.05;;;;;;;22.08;62.47;101243.69;4963443;28;20431;-69
2022/07/23 08:50:26;;;;;;;7.63;5.75;;;;;;;22.18;60.16;101246.00;4969490;28;20010;-69
2022/07/23 08:52:51;;;;;;;6.22;5.57;;;;;;;22.19;59.22;101244.94;4953538;28;20006;-68
2022/07/23 08:55:18;;;;;;;5.82;4.80;;;;;;;22.35;61.20;101249.22;4967681;28;20165;-69
2022/07/23 08:57:43;;;;;;;5.60;4.80;;;;;;;22.45;60.70;101248.81;4966226;28;20005;-70
2022/07/23 09:00:09;;;;;;;5.35;4.63;;;;;;;22.44;60.97;101247.97;4971349;28;20021;-71
2022/07/23 09:02:40;;;;;;;5.85;5.35;;;;;;;22.62;59.06;101244.69;4977320;28;20497;-69
2022/07/23 09:05:06;;;;;;;7.50;5.60;;;;;;;22.83;60.91;101255.53;4974648;28;20054;-70
2022/07/23 09:07:31;;;;;;;5.93;5.38;;;;;;;22.64;57.45;101256.09;4961547;28;20549;-69
2022/07/23 09:10:08;;;;;;;7.13;6.07;;;;;;;22.75;59.00;101249.28;4979016;28;20342;-70
2022/07/23 09:12:33;;;;;;;5.50;4.43;;;;;;;23.09;59.03;101254.72;4985580;28;20021;-70
2022/07/23 09:15:06;;;;;;;5.80;4.72;;;;;;;23.32;58.42;101249.75;4969850;28;20566;-68
2022/07/23 09:17:41;;;;;;;6.80;6.10;;;;;;;23.33;57.50;101259.50;4963682;28;20014;-66
2022/07/23 09:20:11;;;;;;;8.30;6.97;;;;;;;23.44;57.44;101251.81;4947433;28;20022;-66
2022/07/23 09:22:37;;;;;;;7.07;6.40;;;;;;;23.49;56.67;101254.72;4965639;28;20029;-67
2022/07/23 09:25:15;;;;;;;7.88;6.38;;;;;;;23.44;56.60;101257.22;4961061;28;20663;-67
2022/07/23 09:27:52;;;;;;;5.85;5.45;;;;;;;23.95;58.02;101253.78;4963001;28;20150;-67
2022/07/23 09:30:17;;;;;;;6.40;5.80;;;;;;;23.92;54.68;101254.22;4967186;28;20452;-67
2022/07/23 09:32:43;;;;;;;6.70;6.10;;;;;;;23.87;53.49;101264.84;4952516;28;20413;-65
2022/07/23 09:35:08;;;;;;;6.80;6.05;;;;;;;23.83;55.33;101267.13;4966600;28;20205;-67
2022/07/23 09:37:34;;;;;;;6.90;5.80;;;;;;;24.18;55.64;101263.25;4961282;28;20624;-66
2022/07/23 09:40:11;;;;;;;5.82;5.40;;;;;;;24.35;55.35;101267.16;4972169;28;20205;-66
2022/07/23 09:42:37;;;;;;;5.18;4.78;;;;;;;24.65;56.91;101266.59;4949834;28;20020;-66
2022/07/23 09:45:02;;;;;;;6.75;6.05;;;;;;;24.67;54.09;101272.59;4988493;28;20479;-67
2022/07/23 09:47:30;;;;;;;5.90;5.40;;;;;;;25.13;54.73;101275.19;4956428;28;20014;-65
2022/07/23 09:49:59;;;;;;;7.20;6.60;;;;;;;25.06;51.93;101277.13;4948372;28;20950;-66
2022/07/23 09:52:28;;;;;;;6.45;5.70;;;;;;;25.12;50.58;101263.53;4984584;28;20204;-66
2022/07/23 09:55:04;;;;;;;5.75;5.25;;;;;;;25.20;51.68;101274.09;4952340;28;20102;-66
2022/07/23 09:57:29;;;;;;;5.75;5.22;;;;;;;25.68;50.92;101261.78;4949008;28;20020;-65
2022/07/23 09:59:57;;;;;;;5.28;4.88;;;;;;;25.59;50.16;101265.84;4952778;28;20565;-66
2022/07/23 10:02:22;;;;;;;4.80;4.50;;;;;;;25.78;51.12;101266.69;4950950;28;20293;-67
2022/07/23 10:04:48;;;;;;;5.70;5.20;;;;;;;26.21;50.05;101263.09;4941829;28;20023;-67
2022/07/23 10:07:13;;;;;;;6.50;5.90;;;;;;;26.38;48.56;101255.13;4964961;28;20461;-67
2022/07/23 10:09:40;;;;;;;6.70;6.10;;;;;;;26.60;47.98;101262.75;4957054;28;20152;-69
2022/07/23 10:14:47;;;;;;;6.65;5.82;;;;;;;26.28;48.15;101254.03;4968503;28;20095;-66
2022/07/23 10:17:14;;;;;;;6.00;5.60;;;;;;;26.22;46.78;101250.34;4967635;28;20018;-65
2022/07/23 10:19:40;;;;;;;5.60;5.10;;;;;;;26.09;47.96;101255.94;4948238;28;20018;-66
2022/07/23 10:22:25;;;;;;;4.95;4.65;;;;;;;26.54;45.47;101252.84;4956311;28;20404;-66
2022/07/23 10:25:04;;;;;;;5.25;4.82;;;;;;;27.04;44.56;101252.47;4961301;28;20030;-67
2022/07/23 10:27:48;;;;;;;5.65;4.85;;;;;;;27.19;40.88;101243.06;4966907;28;20034;-66
2022/07/23 10:30:19;;;;;;;5.75;5.22;;;;;;;27.49;40.01;101242.13;4960512;28;20232;-67
2022/07/23 10:33:12;;;;;;;5.90;5.30;;;;;;;27.86;40.07;101236.38;4954592;28;20025;-65
2022/07/23 10:35:38;;;;;;;5.95;5.47;;;;;;;27.91;39.34;101233.78;4971667;28;20424;-67
2022/07/23 10:38:12;;;;;;;5.65;5.25;;;;;;;28.07;41.90;101238.47;4984163;28;20014;-67
2022/07/23 10:40:42;;;;;;;5.47;5.00;;;;;;;28.60;42.84;101241.09;4966055;28;20494;-66
2022/07/23 10:43:13;;;;;;;6.20;4.90;;;;;;;28.96;41.46;101244.44;4951878;28;20269;-66
2022/07/23 10:45:38;;;;;;;5.20;4.80;;;;;;;29.01;42.00;101236.34;4964169;28;20209;-66
2022/07/23 10:48:25;;;;;;;4.70;4.30;;;;;;;29.45;41.47;101241.91;4950084;28;20301;-65
2022/07/23 10:51:14;;;;;;;4.60;4.40;;;;;;;29.12;37.04;101229.97;4969237;28;20895;-67
2022/07/23 10:53:51;;;;;;;3.97;3.63;;;;;;;28.77;37.19;101228.34;4967115;28;20009;-67
2022/07/23 10:56:37;;;;;;;3.33;3.08;;;;;;;29.05;37.27;101234.78;4966148;28;20018;-65
2022/07/23 10:59:03;;;;;;;3.38;3.17;;;;;;;29.18;34.87;101224.63;4988755;28;20026;-66
2022/07/23 11:01:36;;;;;;;3.33;3.05;;;;;;;29.34;36.25;101228.41;4988116;28;20032;-66
2022/07/23 11:04:04;;;;;;;4.00;3.80;;;;;;;29.97;36.69;101227.06;4988955;28;20128;-67
2022/07/23 11:07:02;;;;;;;4.30;4.00;;;;;;;29.79;35.15;101225.44;4979549;28;20929;-67
2022/07/23 11:09:41;;;;;;;3.60;3.40;;;;;;;30.32;36.89;101228.53;4942301;28;20022;-66
2022/07/23 11:12:13;;;;;;;3.70;3.47;;;;;;;30.57;37.66;101221.69;4991487;28;20025;-67
2022/07/23 11:15:01;;;;;;;3.33;3.13;;;;;;;31.03;36.75;101229.44;4977925;28;20021;-66